createdAt,value
2022-10-06T00:02:23.168Z,98.99
2022-10-06T00:04:49.749Z,98.88
2022-10-06T00:07:16.636Z,98.30
2022-10-06T00:09:43.156Z,99.09
2022-10-06T00:12:10.025Z,99.22
2022-10-06T00:14:37.171Z,98.79
2022-10-06T00:17:06.812Z,98.85
2022-10-06T00:19:33.253Z,99.68
2022-10-06T00:21:59.701Z,99.51
2022-10-06T00:24:27.170Z,99.08
2022-10-06T00:26:53.682Z,99.53
2022-10-06T00:29:20.135Z,99.24
2022-10-06T00:31:46.639Z,99.49
2022-10-06T00:34:13.153Z,99.39
2022-10-06T00:36:39.904Z,99.18
2022-10-06T00:39:06.396Z,98.85
2022-10-06T00:41:33.015Z,99.01
2022-10-06T00:43:59.665Z,99.25
2022-10-06T00:46:35.248Z,99.18
2022-10-06T00:49:27.923Z,99.73
2022-10-06T00:52:09.796Z,98.77
2022-10-06T00:54:36.895Z,98.91
2022-10-06T00:57:05.492Z,99.34
2022-10-06T00:59:32.648Z,98.34
2022-10-06T01:02:09.281Z,98.76
2022-10-06T01:04:38.575Z,98.56
2022-10-06T01:07:05.175Z,98.90
2022-10-06T01:09:31.862Z,99.53
2022-10-06T01:12:03.053Z,99.98
2022-10-06T01:14:30.154Z,99.41
2022-10-06T01:17:04.915Z,99.69
2022-10-06T01:19:52.838Z,99.20
2022-10-06T01:22:29.030Z,98.87
2022-10-06T01:24:55.922Z,99.62
2022-10-06T01:27:23.714Z,99.68
2022-10-06T01:29:52.792Z,98.96
2022-10-06T01:32:19.872Z,99.40
2022-10-06T01:34:46.321Z,99.00
2022-10-06T01:37:12.862Z,99.75
2022-10-06T01:39:39.278Z,99.87
2022-10-06T01:42:05.787Z,99.90
2022-10-06T01:44:32.384Z,99.62
2022-10-06T01:46:58.838Z,100.00
2022-10-06T01:49:25.306Z,100.00
2022-10-06T01:51:52.045Z,99.44
2022-10-06T01:54:18.487Z,99.42
2022-10-06T01:56:45.013Z,100.00
2022-10-06T01:59:11.630Z,99.80
2022-10-06T02:01:38.232Z,100.00
2022-10-06T02:04:04.989Z,99.92
2022-10-06T02:06:31.696Z,99.73
2022-10-06T02:08:58.142Z,100.00
2022-10-06T02:11:24.588Z,99.51
2022-10-06T02:13:51.063Z,99.83
2022-10-06T02:16:17.617Z,99.96
2022-10-06T02:18:44.572Z,100.00
2022-10-06T02:21:16.304Z,100.00
2022-10-06T02:23:42.836Z,100.00
2022-10-06T02:26:09.247Z,100.00
2022-10-06T02:28:36.256Z,100.00
2022-10-06T02:31:05.393Z,100.00
2022-10-06T02:33:31.902Z,100.00
2022-10-06T02:35:58.500Z,100.00
2022-10-06T02:38:27.858Z,100.00
2022-10-06T02:40:54.642Z,100.00
2022-10-06T02:43:21.671Z,100.00
2022-10-06T02:45:58.752Z,100.00
2022-10-06T02:48:27.271Z,100.00
2022-10-06T02:50:58.797Z,100.00
2022-10-06T02:53:25.929Z,100.00
2022-10-06T02:56:22.975Z,100.00
2022-10-06T02:58:50.170Z,100.00
2022-10-06T03:01:25.559Z,100.00
2022-10-06T03:03:52.689Z,100.00
2022-10-06T03:06:21.916Z,100.00
2022-10-06T03:08:55.409Z,100.00
2022-10-06T03:11:24.249Z,100.00
2022-10-06T03:13:51.398Z,100.00
2022-10-06T03:16:23.912Z,100.00
2022-10-06T03:18:51.537Z,100.00
2022-10-06T03:21:19.628Z,100.00
2022-10-06T03:23:50.509Z,100.00
2022-10-06T03:26:20.400Z,100.00
2022-10-06T03:28:47.248Z,100.00
2022-10-06T03:31:14.615Z,100.00
2022-10-06T03:33:41.102Z,100.00
2022-10-06T03:36:10.872Z,100.00
2022-10-06T03:38:37.646Z,100.00
2022-10-06T03:41:17.748Z,100.00
2022-10-06T03:43:46.007Z,100.00
2022-10-06T03:46:14.231Z,100.00
2022-10-06T03:48:41.565Z,100.00
2022-10-06T03:51:11.530Z,100.00
2022-10-06T03:53:39.392Z,100.00
2022-10-06T03:56:10.747Z,100.00
2022-10-06T03:58:38.985Z,100.00
2022-10-06T04:01:11.139Z,100.00
2022-10-06T04:03:37.599Z,100.00
2022-10-06T04:06:06.599Z,100.00
2022-10-06T04:08:34.187Z,100.00
2022-10-06T04:11:11.380Z,100.00
2022-10-06T04:13:38.368Z,100.00
2022-10-06T04:16:15.075Z,100.00
2022-10-06T04:18:42.681Z,100.00
2022-10-06T04:21:09.856Z,100.00
2022-10-06T04:23:39.306Z,100.00
2022-10-06T04:26:09.889Z,100.00
2022-10-06T04:28:40.891Z,100.00
2022-10-06T04:31:15.685Z,100.00
2022-10-06T04:33:43.232Z,100.00
2022-10-06T04:36:14.315Z,100.00
2022-10-06T04:38:40.739Z,100.00
2022-10-06T04:41:10.604Z,100.00
2022-10-06T04:43:37.153Z,100.00
2022-10-06T04:46:23.951Z,100.00
2022-10-06T04:48:52.505Z,100.00
2022-10-06T04:51:19.719Z,100.00
2022-10-06T04:53:46.321Z,100.00
2022-10-06T04:56:20.932Z,100.00
2022-10-06T04:58:48.784Z,100.00
2022-10-06T05:01:25.372Z,100.00
2022-10-06T05:03:56.066Z,100.00
2022-10-06T05:06:28.073Z,100.00
2022-10-06T05:09:04.012Z,100.00
2022-10-06T05:11:31.979Z,100.00
2022-10-06T05:14:00.036Z,100.00
2022-10-06T05:16:28.675Z,100.00
2022-10-06T05:18:55.564Z,100.00
2022-10-06T05:21:24.428Z,100.00
2022-10-06T05:23:50.973Z,100.00
2022-10-06T05:26:20.026Z,100.00
2022-10-06T05:28:46.733Z,100.00
2022-10-06T05:31:14.583Z,100.00
2022-10-06T05:33:41.913Z,100.00
2022-10-06T05:36:11.526Z,100.00
2022-10-06T05:38:38.208Z,100.00
2022-10-06T05:41:06.756Z,100.00
2022-10-06T05:43:34.113Z,100.00
2022-10-06T05:46:03.807Z,100.00
2022-10-06T05:48:31.113Z,100.00
2022-10-06T05:51:05.255Z,100.00
2022-10-06T05:53:33.793Z,100.00
2022-10-06T05:56:11.924Z,100.00
2022-10-06T05:58:40.214Z,100.00
2022-10-06T06:01:18.648Z,100.00
2022-10-06T06:03:56.253Z,100.00
2022-10-06T06:06:27.486Z,100.00
2022-10-06T06:08:56.040Z,100.00
2022-10-06T06:11:26.374Z,100.00
2022-10-06T06:13:53.721Z,100.00
2022-10-06T06:16:20.238Z,100.00
2022-10-06T06:18:47.027Z,100.00
2022-10-06T06:21:13.575Z,100.00
2022-10-06T06:23:46.467Z,100.00
2022-10-06T06:26:18.066Z,100.00
2022-10-06T06:28:48.708Z,100.00
2022-10-06T06:31:23.257Z,100.00
2022-10-06T06:33:54.723Z,100.00
2022-10-06T06:36:26.617Z,100.00
2022-10-06T06:38:54.878Z,99.95
2022-10-06T06:41:22.334Z,100.00
2022-10-06T06:43:49.945Z,99.90
2022-10-06T06:46:18.398Z,99.34
2022-10-06T06:48:45.346Z,99.65
2022-10-06T06:51:12.259Z,99.37
2022-10-06T06:53:41.656Z,99.90
2022-10-06T06:56:09.356Z,98.81
2022-10-06T06:58:36.060Z,98.59
2022-10-06T07:01:13.619Z,99.16
2022-10-06T07:03:57.101Z,99.28
2022-10-06T07:06:28.145Z,99.25
2022-10-06T07:08:56.128Z,99.51
2022-10-06T07:11:24.958Z,99.44
2022-10-06T07:13:53.517Z,99.46
2022-10-06T07:16:40.132Z,99.34
2022-10-06T07:19:25.950Z,99.30
2022-10-06T07:22:12.427Z,98.77
2022-10-06T07:24:57.744Z,98.87
2022-10-06T07:27:24.836Z,98.81
2022-10-06T07:29:55.266Z,98.25
2022-10-06T07:32:23.941Z,97.51
2022-10-06T07:34:51.414Z,97.79
2022-10-06T07:37:19.136Z,98.30
2022-10-06T07:39:46.314Z,99.03
2022-10-06T07:42:15.219Z,99.09
2022-10-06T07:44:42.735Z,99.03
2022-10-06T07:47:09.261Z,98.89
2022-10-06T07:49:35.931Z,99.02
2022-10-06T07:52:05.199Z,98.80
2022-10-06T07:54:31.718Z,98.25
2022-10-06T07:56:58.545Z,98.50
2022-10-06T07:59:25.120Z,97.91
2022-10-06T08:01:52.952Z,96.47
2022-10-06T08:04:19.533Z,96.08
2022-10-06T08:06:47.749Z,96.18
2022-10-06T08:09:14.203Z,96.62
2022-10-06T08:11:40.748Z,96.23
2022-10-06T08:14:07.225Z,94.67
2022-10-06T08:16:33.870Z,92.82
2022-10-06T08:19:00.829Z,91.58
2022-10-06T08:21:30.088Z,87.00
2022-10-06T08:23:58.694Z,82.20
2022-10-06T08:26:27.292Z,77.25
2022-10-06T08:28:57.787Z,75.82
2022-10-06T08:31:24.636Z,73.33
2022-10-06T08:33:56.242Z,59.25
2022-10-06T08:36:30.841Z,55.21
2022-10-06T08:38:59.240Z,54.30
2022-10-06T08:41:40.231Z,58.23
2022-10-06T08:44:19.799Z,63.49
2022-10-06T08:46:51.671Z,67.97
2022-10-06T08:49:20.875Z,71.25
2022-10-06T08:51:53.959Z,72.09
2022-10-06T08:54:35.449Z,72.92
2022-10-06T08:57:21.710Z,73.64
2022-10-06T08:59:49.706Z,73.63
2022-10-06T09:02:27.378Z,74.78
2022-10-06T09:04:54.233Z,74.80
2022-10-06T09:07:28.614Z,76.83
2022-10-06T09:10:07.782Z,77.98
2022-10-06T09:12:49.082Z,79.61
2022-10-06T09:15:30.199Z,80.71
2022-10-06T09:18:04.977Z,82.45
2022-10-06T09:20:37.915Z,82.06
2022-10-06T09:23:09.084Z,82.23
2022-10-06T09:25:37.942Z,81.00
2022-10-06T09:28:16.051Z,79.94
2022-10-06T09:30:43.400Z,79.74
2022-10-06T09:33:19.056Z,78.45
2022-10-06T09:36:09.061Z,78.19
2022-10-06T09:38:47.938Z,77.55
2022-10-06T09:41:15.751Z,77.81
2022-10-06T09:43:53.064Z,77.91
2022-10-06T09:46:41.878Z,77.38
2022-10-06T09:49:16.097Z,75.88
2022-10-06T09:52:18.601Z,74.86
2022-10-06T09:54:45.297Z,74.73
2022-10-06T09:57:16.601Z,76.11
2022-10-06T09:59:47.296Z,76.73
2022-10-06T10:02:37.073Z,76.43
2022-10-06T10:05:18.058Z,76.68
2022-10-06T10:07:48.145Z,75.80
2022-10-06T10:10:19.808Z,75.71
2022-10-06T10:13:24.195Z,76.80
2022-10-06T10:15:55.000Z,74.27
2022-10-06T10:18:26.807Z,72.81
2022-10-06T10:21:01.034Z,73.70
2022-10-06T10:23:33.433Z,74.19
2022-10-06T10:26:36.902Z,73.44
2022-10-06T10:29:32.861Z,73.64
2022-10-06T10:32:11.978Z,76.27
2022-10-06T10:34:49.234Z,76.48
2022-10-06T10:37:41.203Z,76.71
2022-10-06T10:40:17.807Z,77.77
2022-10-06T10:42:56.191Z,78.22
2022-10-06T10:45:34.037Z,79.47
2022-10-06T10:48:03.268Z,80.08
2022-10-06T10:50:42.800Z,79.09
2022-10-06T10:53:15.170Z,80.65
2022-10-06T10:55:48.265Z,81.23
2022-10-06T10:58:18.974Z,81.82
2022-10-06T11:00:49.198Z,81.95
2022-10-06T11:03:15.819Z,82.60
2022-10-06T11:05:55.699Z,83.16
2022-10-06T11:08:41.044Z,82.47
2022-10-06T11:11:52.225Z,82.65
2022-10-06T11:14:26.379Z,82.13
2022-10-06T11:17:07.246Z,81.69
2022-10-06T11:19:58.152Z,82.13
2022-10-06T11:22:45.383Z,82.30
2022-10-06T11:25:22.966Z,79.72
2022-10-06T11:27:59.275Z,79.23
2022-10-06T11:30:26.814Z,78.92
2022-10-06T11:33:06.457Z,76.34
2022-10-06T11:35:36.437Z,77.86
2022-10-06T11:38:10.964Z,76.75
2022-10-06T11:40:42.307Z,76.60
2022-10-06T11:43:17.056Z,76.11
2022-10-06T11:46:05.705Z,76.85
2022-10-06T11:48:32.962Z,78.84
2022-10-06T11:51:24.966Z,78.30
2022-10-06T11:53:52.568Z,78.66
2022-10-06T11:56:19.003Z,79.21
2022-10-06T11:58:51.603Z,79.39
2022-10-06T12:01:45.091Z,78.71
2022-10-06T12:04:11.446Z,77.88
2022-10-06T12:06:44.535Z,77.12
2022-10-06T12:09:25.580Z,75.50
2022-10-06T12:11:53.702Z,73.34
2022-10-06T12:16:32.398Z,74.63
2022-10-06T12:17:43.169Z,74.07
2022-10-06T12:20:26.848Z,73.19
2022-10-06T12:23:05.249Z,73.08
2022-10-06T12:25:46.855Z,71.72
2022-10-06T12:28:25.223Z,72.30
2022-10-06T12:31:01.511Z,71.54
2022-10-06T12:33:38.894Z,71.97
2022-10-06T12:36:32.336Z,73.79
2022-10-06T12:39:07.705Z,74.96
2022-10-06T12:41:57.996Z,76.39
2022-10-06T12:44:51.639Z,76.71
2022-10-06T12:47:25.209Z,77.96
2022-10-06T12:50:01.661Z,79.29
2022-10-06T12:52:33.968Z,79.69
2022-10-06T12:55:32.208Z,80.33
2022-10-06T12:57:59.254Z,81.52
2022-10-06T13:00:34.807Z,79.13
2022-10-06T13:03:04.329Z,79.28
2022-10-06T13:05:30.799Z,79.14
2022-10-06T13:08:21.336Z,79.24
2022-10-06T13:10:47.808Z,77.94
2022-10-06T13:13:24.189Z,77.53
2022-10-06T13:16:00.598Z,76.35
2022-10-06T13:18:27.575Z,75.96
2022-10-06T13:20:57.742Z,74.04
2022-10-06T13:23:35.315Z,73.35
2022-10-06T13:26:30.298Z,70.46
2022-10-06T13:28:59.083Z,68.52
2022-10-06T13:31:30.400Z,66.24
2022-10-06T13:34:18.074Z,64.31
2022-10-06T13:36:49.889Z,62.76
2022-10-06T13:39:19.184Z,61.83
2022-10-06T13:41:57.041Z,62.42
2022-10-06T13:44:36.368Z,61.66
2022-10-06T13:47:13.937Z,58.99
2022-10-06T13:49:47.508Z,56.31
2022-10-06T13:52:34.820Z,55.06
2022-10-06T13:55:02.773Z,53.61
2022-10-06T13:57:33.058Z,50.53
2022-10-06T14:00:14.434Z,51.01
2022-10-06T14:02:43.461Z,51.99
2022-10-06T14:05:26.784Z,53.75
2022-10-06T14:08:11.465Z,54.09
2022-10-06T14:10:41.275Z,54.90
2022-10-06T14:13:13.165Z,54.33
2022-10-06T14:15:48.194Z,54.64
2022-10-06T14:18:41.960Z,55.19
2022-10-06T14:21:19.077Z,54.55
2022-10-06T14:23:51.008Z,55.11
2022-10-06T14:26:19.813Z,55.07
2022-10-06T14:28:52.818Z,55.19
2022-10-06T14:31:21.185Z,55.02
2022-10-06T14:33:49.231Z,55.38
2022-10-06T14:36:21.441Z,55.40
2022-10-06T14:38:48.904Z,55.54
2022-10-06T14:41:18.989Z,55.89
2022-10-06T14:43:48.682Z,56.60
2022-10-06T14:46:15.943Z,56.05
2022-10-06T14:48:42.975Z,56.70
2022-10-06T14:51:09.827Z,57.42
2022-10-06T14:53:39.296Z,57.32
2022-10-06T14:56:08.973Z,59.59
2022-10-06T14:58:39.480Z,59.03
2022-10-06T15:01:07.561Z,59.21
2022-10-06T15:03:37.005Z,59.68
2022-10-06T15:06:25.267Z,58.34
2022-10-06T15:08:52.933Z,57.47
2022-10-06T15:11:21.435Z,56.78
2022-10-06T15:13:48.182Z,56.75
2022-10-06T15:16:15.437Z,58.08
2022-10-06T15:18:42.929Z,57.40
2022-10-06T15:21:11.467Z,57.16
2022-10-06T15:23:39.281Z,57.54
2022-10-06T15:26:25.064Z,57.94
2022-10-06T15:29:00.654Z,58.41
2022-10-06T15:31:35.905Z,59.44
2022-10-06T15:34:05.550Z,59.30
2022-10-06T15:36:37.151Z,59.68
2022-10-06T15:39:06.990Z,60.52
2022-10-06T15:41:34.959Z,61.37
2022-10-06T15:44:03.234Z,61.80
2022-10-06T15:46:35.197Z,62.62
2022-10-06T15:49:04.818Z,63.90
2022-10-06T15:51:42.972Z,64.17
2022-10-06T15:54:11.010Z,65.27
2022-10-06T15:56:38.178Z,66.06
2022-10-06T15:59:06.563Z,66.58
2022-10-06T16:01:35.881Z,67.35
2022-10-06T16:04:12.166Z,67.87
2022-10-06T16:06:49.041Z,68.31
2022-10-06T16:09:18.038Z,68.79
2022-10-06T16:11:45.275Z,69.61
2022-10-06T16:14:12.037Z,70.06
2022-10-06T16:16:43.288Z,69.73
2022-10-06T16:19:10.571Z,69.41
2022-10-06T16:21:39.204Z,69.33
2022-10-06T16:24:06.065Z,69.85
2022-10-06T16:26:33.078Z,70.41
2022-10-06T16:29:00.344Z,70.68
2022-10-06T16:31:26.938Z,70.77
2022-10-06T16:33:53.483Z,70.79
2022-10-06T16:36:20.068Z,70.83
2022-10-06T16:38:49.986Z,71.15
2022-10-06T16:41:16.876Z,70.48
2022-10-06T16:43:45.145Z,71.37
2022-10-06T16:46:15.003Z,70.91
2022-10-06T16:48:44.679Z,71.40
2022-10-06T16:51:15.693Z,71.59
2022-10-06T16:53:45.138Z,71.80
2022-10-06T16:56:14.549Z,71.68
2022-10-06T16:58:43.204Z,72.14
2022-10-06T17:01:11.596Z,72.40
2022-10-06T17:03:38.445Z,73.25
2022-10-06T17:06:10.058Z,73.30
2022-10-06T17:08:37.247Z,73.39
2022-10-06T17:11:16.224Z,73.16
2022-10-06T17:13:44.544Z,73.15
2022-10-06T17:16:13.035Z,73.19
2022-10-06T17:18:40.078Z,73.66
2022-10-06T17:21:32.194Z,74.38
2022-10-06T17:23:58.452Z,74.49
2022-10-06T17:26:30.498Z,75.09
2022-10-06T17:28:59.000Z,75.12
2022-10-06T17:31:37.507Z,75.03
2022-10-06T17:34:11.276Z,75.13
2022-10-06T17:36:43.507Z,76.42
2022-10-06T17:39:13.913Z,76.62
2022-10-06T17:41:42.510Z,76.84
2022-10-06T17:44:14.410Z,76.79
2022-10-06T17:46:42.569Z,77.77
2022-10-06T17:49:10.976Z,77.73
2022-10-06T17:51:40.608Z,77.63
2022-10-06T17:54:12.015Z,78.55
2022-10-06T17:56:39.066Z,78.84
2022-10-06T17:59:11.177Z,79.10
2022-10-06T18:01:37.782Z,78.75
2022-10-06T18:04:06.529Z,78.71
2022-10-06T18:06:35.408Z,78.12
2022-10-06T18:09:03.342Z,78.61
2022-10-06T18:11:35.801Z,77.63
2022-10-06T18:14:05.450Z,78.65
2022-10-06T18:16:56.252Z,78.72
2022-10-06T18:19:26.685Z,79.26
2022-10-06T18:21:56.620Z,79.32
2022-10-06T18:24:25.519Z,78.92
2022-10-06T18:26:54.407Z,79.03
2022-10-06T18:29:26.768Z,78.28
2022-10-06T18:31:53.974Z,78.71
2022-10-06T18:37:07.998Z,79.54
2022-10-06T18:39:36.395Z,78.73
2022-10-06T18:42:05.369Z,78.96
2022-10-06T18:44:50.652Z,78.62
2022-10-06T18:47:35.605Z,78.89
2022-10-06T18:50:03.551Z,79.09
2022-10-06T18:52:30.383Z,78.91
2022-10-06T18:54:56.864Z,78.70
2022-10-06T18:57:27.674Z,78.61
2022-10-06T18:59:54.999Z,79.28
2022-10-06T19:02:21.617Z,80.07
2022-10-06T19:04:48.545Z,80.54
2022-10-06T19:07:15.348Z,80.22
2022-10-06T19:09:46.478Z,81.36
2022-10-06T19:12:14.259Z,81.20
2022-10-06T19:14:47.206Z,80.98
2022-10-06T19:17:15.206Z,81.48
2022-10-06T19:19:51.370Z,81.91
2022-10-06T19:22:19.974Z,82.78
2022-10-06T19:24:48.650Z,83.17
2022-10-06T19:27:24.353Z,83.45
2022-10-06T19:29:54.526Z,84.36
2022-10-06T19:32:27.230Z,84.47
2022-10-06T19:34:58.005Z,84.49
2022-10-06T19:37:29.455Z,85.29
2022-10-06T19:39:56.846Z,85.76
2022-10-06T19:42:42.234Z,86.25
2022-10-06T19:45:09.762Z,86.71
2022-10-06T19:47:36.342Z,86.53
2022-10-06T19:50:11.272Z,86.92
2022-10-06T19:52:39.002Z,86.78
2022-10-06T19:55:09.172Z,87.69
2022-10-06T19:57:36.008Z,88.05
2022-10-06T20:00:04.859Z,87.81
2022-10-06T20:02:31.421Z,88.54
2022-10-06T20:04:57.998Z,88.73
2022-10-06T20:07:27.725Z,89.45
2022-10-06T20:09:54.915Z,88.98
2022-10-06T20:12:24.902Z,89.76
2022-10-06T20:14:53.688Z,89.96
2022-10-06T20:17:20.908Z,90.19
2022-10-06T20:19:47.569Z,91.32
2022-10-06T20:22:14.231Z,91.98
2022-10-06T20:24:40.969Z,92.38
2022-10-06T20:27:07.470Z,92.68
2022-10-06T20:29:34.655Z,93.53
2022-10-06T20:32:01.320Z,93.70
2022-10-06T20:34:32.299Z,93.91
2022-10-06T20:37:01.852Z,95.17
2022-10-06T20:39:48.357Z,95.73
2022-10-06T20:42:15.540Z,96.35
2022-10-06T20:44:43.140Z,96.76
2022-10-06T20:47:10.739Z,96.82
2022-10-06T20:49:37.249Z,97.47
2022-10-06T20:52:05.857Z,97.01
2022-10-06T20:54:35.221Z,97.60
2022-10-06T20:57:04.366Z,97.81
2022-10-06T20:59:31.535Z,97.80
2022-10-06T21:01:59.989Z,98.09
2022-10-06T21:04:30.324Z,98.54
2022-10-06T21:06:57.286Z,99.20
2022-10-06T21:09:24.602Z,99.00
2022-10-06T21:11:51.603Z,100.00
2022-10-06T21:14:18.547Z,100.00
2022-10-06T21:16:46.554Z,100.00
2022-10-06T21:19:15.533Z,99.98
2022-10-06T21:21:43.188Z,100.00
2022-10-06T21:24:09.899Z,100.00
2022-10-06T21:26:38.464Z,100.00
2022-10-06T21:29:05.658Z,100.00
2022-10-06T21:31:33.200Z,100.00
2022-10-06T21:34:01.420Z,100.00
2022-10-06T21:36:30.296Z,100.00
2022-10-06T21:38:57.995Z,100.00
2022-10-06T21:41:29.948Z,100.00
2022-10-06T21:44:01.453Z,100.00
2022-10-06T21:46:33.393Z,100.00
2022-10-06T21:49:00.811Z,100.00
2022-10-06T21:51:29.293Z,100.00
2022-10-06T21:53:56.995Z,100.00
2022-10-06T21:56:24.660Z,100.00
2022-10-06T21:58:53.027Z,100.00
2022-10-06T22:01:21.739Z,100.00
2022-10-06T22:03:48.838Z,100.00
2022-10-06T22:06:19.415Z,100.00
2022-10-06T22:08:46.699Z,100.00
2022-10-06T22:11:24.588Z,100.00
2022-10-06T22:13:54.099Z,100.00
2022-10-06T22:16:22.866Z,100.00
2022-10-06T22:18:50.024Z,100.00
2022-10-06T22:21:21.824Z,100.00
2022-10-06T22:23:57.014Z,100.00
2022-10-06T22:26:24.492Z,100.00
2022-10-06T22:28:53.123Z,100.00
2022-10-06T22:31:25.483Z,100.00
2022-10-06T22:33:57.149Z,100.00
2022-10-06T22:36:24.462Z,100.00
2022-10-06T22:38:51.541Z,100.00
2022-10-06T22:41:18.060Z,100.00
2022-10-06T22:43:44.683Z,100.00
2022-10-06T22:46:11.988Z,100.00
2022-10-06T22:48:38.853Z,100.00
2022-10-06T22:51:07.568Z,100.00
2022-10-06T22:53:34.431Z,100.00
2022-10-06T22:56:02.016Z,100.00
2022-10-06T22:58:28.860Z,100.00
2022-10-06T23:00:55.592Z,100.00
2022-10-06T23:03:23.002Z,100.00
2022-10-06T23:06:00.241Z,100.00
2022-10-06T23:08:34.027Z,100.00
2022-10-06T23:11:05.773Z,100.00
2022-10-06T23:13:32.510Z,100.00
2022-10-06T23:16:07.623Z,100.00
2022-10-06T23:18:36.297Z,100.00
2022-10-06T23:21:07.887Z,100.00
2022-10-06T23:23:34.563Z,100.00
2022-10-06T23:26:12.170Z,100.00
2022-10-06T23:28:39.040Z,100.00
2022-10-06T23:31:07.681Z,100.00
2022-10-06T23:33:34.752Z,100.00
2022-10-06T23:36:04.948Z,100.00
2022-10-06T23:38:31.423Z,100.00
2022-10-06T23:40:58.290Z,100.00
2022-10-06T23:43:24.810Z,100.00
2022-10-06T23:45:51.948Z,100.00
2022-10-06T23:48:18.534Z,100.00
2022-10-06T23:51:08.819Z,100.00
2022-10-06T23:53:36.146Z,100.00
2022-10-06T23:56:04.917Z,100.00
2022-10-06T23:58:31.769Z,100.00
